Time;durP1;ratioP1;P1;durP2;ratioP2;P2;SDS_P1;SDS_P2;PMS_P1;PMS_P2;Temp;Humidity;BMP_temperature;BMP_pressure;BME280_temperature;BME280_humidity;BME280_pressure;Samples;Min_cycle;Max_cycle;Signal;HPM_P1;HPM_P2
2022/07/03 00:02:00;;;;;;;13.65;8.93;;;;;;;21.52;100.00;99636.28;5091636;28;20108;-47
2022/07/03 00:04:26;;;;;;;17.30;10.30;;;;;;;21.47;100.00;99633.22;5091318;28;20058;-50
2022/07/03 00:06:53;;;;;;;15.20;10.15;;;;;;;21.51;100.00;99687.72;5091374;28;20052;-47
2022/07/03 00:09:20;;;;;;;16.35;10.60;;;;;;;21.35;100.00;99705.13;5091475;28;20044;-48
2022/07/03 00:11:47;;;;;;;13.57;10.27;;;;;;;21.34;100.00;99728.66;5091369;28;20077;-47
2022/07/03 00:14:13;;;;;;;15.45;10.30;;;;;;;21.32;100.00;99756.16;5091511;28;20503;-48
2022/07/03 00:16:40;;;;;;;16.13;10.73;;;;;;;21.20;100.00;99779.06;5091330;28;20048;-49
2022/07/03 00:19:07;;;;;;;13.45;10.48;;;;;;;21.15;100.00;99805.41;5091633;28;20048;-48
2022/07/03 00:21:35;;;;;;;12.98;10.38;;;;;;;21.20;100.00;99804.16;5091240;28;20051;-49
2022/07/03 00:24:04;;;;;;;12.73;9.60;;;;;;;21.24;100.00;99823.63;5090484;28;20054;-48
2022/07/03 00:26:34;;;;;;;13.02;11.48;;;;;;;21.28;100.00;99821.56;5091067;28;20063;-47
2022/07/03 00:29:01;;;;;;;14.38;11.25;;;;;;;21.18;100.00;99831.66;5091076;28;20150;-48
2022/07/03 00:31:29;;;;;;;12.45;11.05;;;;;;;21.15;100.00;99836.09;5091250;28;20055;-48
2022/07/03 00:33:57;;;;;;;15.80;10.05;;;;;;;21.02;100.00;99832.28;5090866;28;20048;-48
2022/07/03 00:36:26;;;;;;;14.25;11.70;;;;;;;20.99;100.00;99833.13;5090906;28;20055;-48
2022/07/03 00:38:52;;;;;;;12.77;11.35;;;;;;;21.09;100.00;99836.97;5090966;28;20400;-50
2022/07/03 00:41:26;;;;;;;13.45;10.88;;;;;;;21.08;100.00;99827.03;5091219;28;20048;-51
2022/07/03 00:43:53;;;;;;;16.20;11.68;;;;;;;21.01;100.00;99816.78;5090883;28;20055;-52
2022/07/03 00:46:22;;;;;;;16.65;12.40;;;;;;;20.92;100.00;99813.72;5090923;28;20100;-48
2022/07/03 00:48:50;;;;;;;15.85;10.98;;;;;;;21.07;100.00;99823.47;5090811;28;20093;-52
2022/07/03 00:51:21;;;;;;;12.05;10.35;;;;;;;21.11;100.00;99829.00;5090929;28;20163;-50
2022/07/03 00:53:50;;;;;;;14.65;11.40;;;;;;;21.17;100.00;99821.72;5090762;28;20147;-51
2022/07/03 00:56:19;;;;;;;14.82;11.55;;;;;;;21.09;100.00;99809.91;5090733;28;20152;-52
2022/07/03 00:58:46;;;;;;;15.23;12.25;;;;;;;21.15;100.00;99782.31;5090572;28;20134;-50
2022/07/03 01:01:16;;;;;;;17.88;12.35;;;;;;;21.14;100.00;99792.69;5090689;28;20156;-50
2022/07/03 01:03:46;;;;;;;16.23;12.10;;;;;;;21.17;100.00;99768.75;5090499;28;20135;-50
2022/07/03 01:06:15;;;;;;;14.48;12.55;;;;;;;21.02;100.00;99743.09;5090395;28;20067;-50
2022/07/03 01:08:45;;;;;;;17.15;12.45;;;;;;;20.99;100.00;99730.00;5090682;28;20551;-48
2022/07/03 01:11:22;;;;;;;16.08;10.80;;;;;;;20.86;100.00;99717.88;5090695;28;20048;-49
2022/07/03 01:14:00;;;;;;;16.60;12.85;;;;;;;21.03;100.00;99714.03;5090469;28;20052;-47
2022/07/03 01:16:34;;;;;;;14.32;12.50;;;;;;;21.13;100.00;99723.44;5090226;28;20083;-48
2022/07/03 01:19:07;;;;;;;;;;;;;;;21.18;100.00;99719.38;5090506;28;20062;-48
2022/07/03 01:21:36;;;;;;;14.73;12.98;;;;;;;21.17;100.00;99717.78;5090341;28;19931;-48
2022/07/03 01:24:38;;;;;;;17.17;14.20;;;;;;;21.33;100.00;99729.06;5090178;28;20109;-51
2022/07/03 01:27:13;;;;;;;14.88;13.35;;;;;;;21.33;100.00;99738.22;5090191;28;20048;-49
2022/07/03 01:29:53;;;;;;;19.75;13.45;;;;;;;21.41;100.00;99755.66;5090310;28;20056;-49
2022/07/03 01:32:24;;;;;;;19.80;14.35;;;;;;;21.33;100.00;99737.44;5090113;28;20047;-48
2022/07/03 01:34:53;;;;;;;18.25;14.52;;;;;;;21.28;100.00;99732.34;5089193;28;20056;-51
2022/07/03 01:37:24;;;;;;;16.42;14.25;;;;;;;21.21;100.00;99719.31;5090089;28;20101;-49
2022/07/03 01:39:53;;;;;;;16.27;13.88;;;;;;;21.16;100.00;99714.22;5090094;28;20044;-48
2022/07/03 01:42:22;;;;;;;17.50;12.77;;;;;;;21.31;100.00;99709.97;5090030;28;20139;-50
2022/07/03 01:44:52;;;;;;;19.80;14.60;;;;;;;21.12;100.00;99700.31;5090235;28;20048;-48
2022/07/03 01:47:19;;;;;;;18.70;15.32;;;;;;;21.08;100.00;99682.88;5090168;28;20047;-48
2022/07/03 01:49:48;;;;;;;17.45;13.23;;;;;;;21.05;100.00;99672.56;5089837;28;20102;-49
2022/07/03 01:52:16;;;;;;;17.15;14.63;;;;;;;21.20;100.00;99672.34;5089859;28;20094;-52
2022/07/03 01:54:45;;;;;;;15.55;13.88;;;;;;;21.26;100.00;99684.56;5089778;28;20052;-49
2022/07/03 01:57:11;;;;;;;16.00;14.40;;;;;;;21.34;100.00;99689.63;5089832;28;20052;-51
2022/07/03 01:59:38;;;;;;;17.83;13.77;;;;;;;21.30;100.00;99688.09;5089672;28;20109;-48
2022/07/03 02:02:14;;;;;;;15.35;13.57;;;;;;;21.34;100.00;99697.19;5089564;28;20147;-48
2022/07/03 02:04:49;;;;;;;15.90;14.15;;;;;;;21.16;100.00;99661.25;5089642;28;20101;-47
2022/07/03 02:07:21;;;;;;;15.82;14.20;;;;;;;21.18;100.00;99660.81;5090021;28;20134;-49
2022/07/03 02:09:54;;;;;;;16.55;13.38;;;;;;;21.24;100.00;99665.47;5089589;28;20098;-53
2022/07/03 02:12:27;;;;;;;15.43;13.80;;;;;;;21.29;100.00;99669.75;5089488;28;20051;-48
2022/07/03 02:15:05;;;;;;;20.10;13.90;;;;;;;21.34;100.00;99664.53;5089688;28;20433;-49
2022/07/03 02:17:37;;;;;;;15.57;12.98;;;;;;;21.29;100.00;99666.97;5089543;28;20044;-48
2022/07/03 02:20:07;;;;;;;14.75;13.30;;;;;;;21.37;100.00;99663.69;5089538;28;20055;-49
2022/07/03 02:22:35;;;;;;;18.38;11.05;;;;;;;21.39;100.00;99674.41;5089605;28;20052;-49
2022/07/03 02:25:04;;;;;;;15.90;12.98;;;;;;;21.24;100.00;99671.06;5089286;28;20105;-47
2022/07/03 02:27:41;;;;;;;14.55;12.93;;;;;;;21.33;100.00;99665.72;5089197;28;20524;-48
2022/07/03 02:30:09;;;;;;;13.98;12.45;;;;;;;21.08;100.00;99655.00;5089427;28;20051;-48
2022/07/03 02:32:40;;;;;;;16.50;12.48;;;;;;;21.00;100.00;99631.25;5089434;28;20091;-47
2022/07/03 02:35:10;;;;;;;17.50;13.20;;;;;;;21.31;100.00;99625.53;5089268;28;20072;-47
2022/07/03 02:37:45;;;;;;;18.65;13.00;;;;;;;21.09;100.00;99631.50;5089427;28;20059;-49
2022/07/03 02:40:23;;;;;;;14.13;12.13;;;;;;;21.16;100.00;99627.78;5089210;28;20051;-48
2022/07/03 02:43:03;;;;;;;14.88;13.38;;;;;;;20.96;100.00;99615.78;5089321;28;20056;-47
2022/07/03 02:45:50;;;;;;;15.32;12.75;;;;;;;21.24;100.00;99614.50;5088953;28;20044;-47
2022/07/03 02:48:24;;;;;;;17.92;12.88;;;;;;;20.95;100.00;99603.06;5092602;28;20048;-47
2022/07/03 02:50:56;;;;;;;14.05;12.60;;;;;;;21.17;100.00;99601.47;5092571;28;20139;-48
2022/07/03 02:53:28;;;;;;;13.88;11.95;;;;;;;21.27;100.00;99613.66;5092694;28;20075;-49
2022/07/03 02:56:05;;;;;;;16.52;10.68;;;;;;;21.52;100.00;99639.09;5092908;28;20066;-50
2022/07/03 02:58:49;;;;;;;13.20;11.75;;;;;;;21.45;100.00;99655.97;5092692;28;20502;-48
2022/07/03 03:01:30;;;;;;;15.73;11.63;;;;;;;21.50;100.00;99674.22;5092860;28;20055;-51
2022/07/03 03:04:07;;;;;;;14.70;11.38;;;;;;;21.69;100.00;99679.00;5092539;28;20517;-48
2022/07/03 03:06:36;;;;;;;13.02;11.20;;;;;;;21.96;100.00;99703.22;5092188;28;20059;-49
2022/07/03 03:09:05;;;;;;;14.98;11.73;;;;;;;21.62;100.00;99718.22;5092541;28;20052;-49
2022/07/03 03:11:41;;;;;;;11.93;9.98;;;;;;;22.06;100.00;99732.94;5092538;28;20062;-49
2022/07/03 03:14:11;;;;;;;14.27;9.98;;;;;;;22.57;100.00;99755.84;5092403;28;20048;-49
2022/07/03 03:16:46;;;;;;;13.75;10.50;;;;;;;22.97;100.00;99806.13;5092157;28;20051;-49
2022/07/03 03:19:13;;;;;;;11.13;10.05;;;;;;;22.99;100.00;99823.22;5092279;28;20052;-50
2022/07/03 03:21:50;;;;;;;13.63;10.13;;;;;;;23.25;100.00;99838.22;5092136;28;20181;-52
2022/07/03 03:24:18;;;;;;;12.95;9.77;;;;;;;23.13;100.00;99836.91;5092247;28;20109;-51
2022/07/03 03:26:45;;;;;;;12.80;9.95;;;;;;;23.31;100.00;99838.50;5092125;28;20113;-50
2022/07/03 03:29:11;;;;;;;12.95;9.57;;;;;;;23.45;100.00;99833.34;5092082;28;20138;-48
2022/07/03 03:31:38;;;;;;;11.48;9.10;;;;;;;23.49;100.00;99825.66;5092273;28;20044;-50
2022/07/03 03:34:04;;;;;;;12.15;9.50;;;;;;;23.15;100.00;99826.06;5091984;28;20572;-51
2022/07/03 03:36:32;;;;;;;11.85;10.32;;;;;;;23.78;100.00;99813.78;5092226;28;20447;-50
2022/07/03 03:38:58;;;;;;;12.20;10.95;;;;;;;24.10;100.00;99790.53;5091694;28;20055;-50
2022/07/03 03:41:24;;;;;;;13.10;10.73;;;;;;;24.17;100.00;99744.72;5092273;28;20056;-52
2022/07/03 03:43:51;;;;;;;11.13;10.00;;;;;;;24.87;100.00;99706.59;5091997;28;20056;-48
2022/07/03 03:46:17;;;;;;;11.63;9.90;;;;;;;25.35;100.00;99525.81;5092038;28;20052;-52
2022/07/03 03:48:44;;;;;;;10.73;9.35;;;;;;;24.97;100.00;99452.28;5092002;28;20544;-50
2022/07/03 03:51:11;;;;;;;12.95;9.80;;;;;;;24.82;100.00;99469.59;5091878;28;20056;-49
2022/07/03 03:53:37;;;;;;;10.88;8.68;;;;;;;24.37;100.00;99604.44;5092296;28;20105;-52
2022/07/03 03:56:05;;;;;;;9.60;8.25;;;;;;;23.74;100.00;99703.91;5092014;28;20056;-52
2022/07/03 03:58:35;;;;;;;13.50;9.10;;;;;;;24.89;100.00;99598.38;5091134;28;20048;-49
2022/07/03 04:01:03;;;;;;;14.82;8.23;;;;;;;25.47;100.00;99447.63;5091438;28;20135;-52
2022/07/03 04:03:30;;;;;;;9.45;8.30;;;;;;;25.71;100.00;99322.31;5091730;28;20143;-49
2022/07/03 04:05:58;;;;;;;9.80;7.97;;;;;;;25.58;100.00;99231.84;5091423;28;20052;-49
2022/07/03 04:08:25;;;;;;;12.88;8.05;;;;;;;24.89;100.00;99322.75;5091627;28;20279;-50
2022/07/03 04:10:52;;;;;;;8.68;7.88;;;;;;;24.76;100.00;99389.31;5091250;28;20147;-52
2022/07/03 04:13:19;;;;;;;9.35;8.45;;;;;;;24.52;100.00;99541.09;5091530;28;20080;-51
2022/07/03 04:15:45;;;;;;;9.60;8.70;;;;;;;24.04;100.00;99543.03;5091222;28;20541;-52
2022/07/03 04:18:12;;;;;;;10.13;9.13;;;;;;;24.16;100.00;99662.72;5091596;28;20139;-49
2022/07/03 04:20:38;;;;;;;11.02;7.80;;;;;;;24.75;100.00;99632.47;5091296;28;20048;-51
2022/07/03 04:23:05;;;;;;;9.38;8.45;;;;;;;25.04;100.00;99533.34;5091255;28;20074;-50
2022/07/03 04:25:31;;;;;;;12.02;7.95;;;;;;;25.13;100.00;99345.50;5091263;28;20083;-49
2022/07/03 04:27:58;;;;;;;9.32;7.88;;;;;;;24.94;100.00;99321.38;5091125;28;20058;-49
2022/07/03 04:30:25;;;;;;;8.27;7.53;;;;;;;25.94;100.00;99266.84;5091292;28;20052;-51
2022/07/03 04:32:51;;;;;;;10.27;7.63;;;;;;;27.23;100.00;98965.50;5091285;28;20058;-51
2022/07/03 04:35:17;;;;;;;11.20;7.82;;;;;;;27.68;100.00;98685.44;5091134;28;20094;-49
2022/07/03 04:37:44;;;;;;;10.77;7.80;;;;;;;27.67;100.00;98662.13;5091222;28;20159;-49
2022/07/03 04:40:12;;;;;;;8.23;7.40;;;;;;;27.95;100.00;98610.97;5091343;28;20121;-51
2022/07/03 04:42:38;;;;;;;10.10;7.43;;;;;;;27.53;100.00;98657.38;5091042;28;20138;-51
2022/07/03 04:45:06;;;;;;;7.43;6.70;;;;;;;28.20;100.00;98560.75;5091042;28;20725;-49
2022/07/03 04:47:33;;;;;;;9.57;6.80;;;;;;;27.91;100.00;98545.66;5091058;28;20077;-49
2022/07/03 04:49:59;;;;;;;9.27;7.07;;;;;;;27.19;100.00;98667.38;5091193;28;20056;-50
2022/07/03 04:52:26;;;;;;;8.52;7.60;;;;;;;26.71;100.00;98802.66;5091141;28;20476;-50
2022/07/03 04:54:52;;;;;;;9.35;7.38;;;;;;;27.09;100.00;98809.44;5091153;28;20044;-50
2022/07/03 04:57:19;;;;;;;7.97;7.18;;;;;;;27.17;100.00;98712.91;5090982;28;20055;-53
2022/07/03 04:59:46;;;;;;;7.97;7.18;;;;;;;26.43;100.00;98852.72;5090512;28;20056;-49
2022/07/03 05:02:12;;;;;;;9.88;7.47;;;;;;;26.31;100.00;98899.47;5090790;28;20415;-50
2022/07/03 05:04:38;;;;;;;9.75;7.32;;;;;;;25.74;100.00;98981.66;5090507;28;20048;-52
2022/07/03 05:07:05;;;;;;;10.32;7.70;;;;;;;25.20;100.00;99229.44;5090700;28;20056;-49
2022/07/03 05:09:31;;;;;;;9.35;7.13;;;;;;;25.56;100.00;99248.38;5090186;28;20434;-49
2022/07/03 05:11:57;;;;;;;8.73;6.95;;;;;;;26.02;100.00;99097.53;5090395;28;20116;-49
2022/07/03 05:14:24;;;;;;;7.95;7.18;;;;;;;26.05;100.00;99053.66;5090409;28;20059;-49
2022/07/03 05:16:50;;;;;;;9.18;7.40;;;;;;;27.85;100.00;98806.78;5090664;28;20130;-49
2022/07/03 05:19:17;;;;;;;13.18;7.85;;;;;;;28.32;100.00;98489.09;5090436;28;20428;-50
2022/07/03 05:21:43;;;;;;;8.93;7.70;;;;;;;28.09;100.00;98521.97;5090181;28;20052;-49
2022/07/03 05:24:09;;;;;;;10.18;7.22;;;;;;;26.94;100.00;98649.13;5090631;28;20063;-49
2022/07/03 05:26:35;;;;;;;8.20;7.15;;;;;;;26.70;100.00;98761.75;5090178;28;20062;-50
2022/07/03 05:29:01;;;;;;;8.52;7.18;;;;;;;26.09;100.00;98880.13;5090406;28;20079;-49
2022/07/03 05:31:28;;;;;;;8.80;7.43;;;;;;;25.90;100.00;98951.69;5090214;28;20056;-50
2022/07/03 05:33:55;;;;;;;9.70;7.65;;;;;;;25.70;100.00;99056.84;5090334;28;20055;-50
2022/07/03 05:36:21;;;;;;;11.63;7.47;;;;;;;25.47;100.00;99138.91;5090052;28;20055;-49
2022/07/03 05:41:31;;;;;;;7.80;7.10;;;;;;;25.34;100.00;99206.38;5090141;28;20094;-50
2022/07/03 05:43:57;;;;;;;9.57;7.97;;;;;;;25.11;100.00;99250.59;5089908;28;20426;-50
2022/07/03 05:46:24;;;;;;;11.00;7.63;;;;;;;24.99;100.00;99285.13;5090011;28;20545;-51
2022/07/03 05:48:51;;;;;;;8.55;7.55;;;;;;;25.02;100.00;99300.22;5090037;28;20178;-50
2022/07/03 05:51:17;;;;;;;9.35;7.40;;;;;;;25.07;100.00;99336.88;5090476;28;20109;-54
2022/07/03 05:53:43;;;;;;;10.32;7.43;;;;;;;25.45;100.00;99245.22;5089938;28;20408;-54
2022/07/03 05:56:10;;;;;;;8.02;7.22;;;;;;;25.73;100.00;99133.75;5090398;28;20579;-52
2022/07/03 05:58:36;;;;;;;9.15;7.43;;;;;;;26.56;100.00;98985.38;5089991;28;20070;-52
2022/07/03 06:01:02;;;;;;;9.68;6.70;;;;;;;26.84;100.00;98830.50;5090292;28;20052;-53
2022/07/03 06:03:28;;;;;;;8.48;5.97;;;;;;;26.77;100.00;98811.19;5090001;28;20558;-54
2022/07/03 06:05:55;;;;;;;8.52;6.40;;;;;;;27.03;100.00;98805.78;5090404;28;20491;-53
2022/07/03 06:08:21;;;;;;;8.93;7.00;;;;;;;26.94;100.00;98815.84;5089666;28;20105;-52
2022/07/03 06:10:48;;;;;;;8.70;6.57;;;;;;;26.82;100.00;98864.72;5089944;28;20117;-53
2022/07/03 06:13:14;;;;;;;9.57;7.00;;;;;;;26.64;100.00;98943.63;5089986;28;20143;-53
2022/07/03 06:15:40;;;;;;;7.63;6.80;;;;;;;26.37;100.00;98965.00;5089693;28;20094;-52
2022/07/03 06:18:06;;;;;;;10.10;6.90;;;;;;;26.33;100.00;99014.22;5089609;28;20503;-51
2022/07/03 06:20:33;;;;;;;11.32;7.28;;;;;;;26.14;100.00;99031.16;5089812;28;20161;-53
2022/07/03 06:22:59;;;;;;;8.35;7.45;;;;;;;26.18;100.00;99048.59;5093170;28;20048;-53
2022/07/03 06:25:26;;;;;;;10.32;7.75;;;;;;;26.67;100.00;98945.47;5093143;28;20056;-50
2022/07/03 06:27:52;;;;;;;8.68;7.30;;;;;;;27.36;100.00;98744.41;5093255;28;20044;-51
2022/07/03 06:30:18;;;;;;;8.32;7.32;;;;;;;26.78;100.00;98715.09;5093063;28;20048;-51
2022/07/03 06:32:44;;;;;;;9.20;7.57;;;;;;;27.12;100.00;98707.16;5093257;28;20087;-55
2022/07/03 06:35:11;;;;;;;8.75;7.38;;;;;;;27.42;100.00;98615.00;5092795;28;20051;-50
2022/07/03 06:37:37;;;;;;;8.80;7.25;;;;;;;27.44;100.00;98621.69;5092972;28;20055;-51
2022/07/03 06:40:05;;;;;;;8.90;7.47;;;;;;;28.01;100.00;98561.09;5092789;28;20142;-52
2022/07/03 06:42:32;;;;;;;9.20;7.18;;;;;;;27.61;100.00;98582.44;5093041;28;20427;-53
2022/07/03 06:44:58;;;;;;;7.82;7.13;;;;;;;26.81;100.00;98718.97;5092907;28;20052;-53
2022/07/03 06:47:24;;;;;;;8.18;7.15;;;;;;;26.42;100.00;98804.13;5092720;28;20060;-53
2022/07/03 06:49:50;;;;;;;8.32;7.43;;;;;;;26.10;100.00;98850.00;5092944;28;20048;-53
2022/07/03 06:52:17;;;;;;;9.63;7.75;;;;;;;26.21;100.00;98912.03;5092631;28;20069;-53
2022/07/03 06:54:43;;;;;;;7.93;7.13;;;;;;;26.68;100.00;98832.50;5092944;28;20422;-53
2022/07/03 06:57:10;;;;;;;9.23;8.32;;;;;;;27.17;100.00;98701.66;5092603;28;20052;-53
2022/07/03 06:59:37;;;;;;;7.95;6.95;;;;;;;27.18;100.00;98784.03;5092795;28;20147;-53
2022/07/03 07:02:03;;;;;;;9.27;7.38;;;;;;;27.26;100.00;98709.22;5092399;28;20058;-50
2022/07/03 07:04:30;;;;;;;11.90;7.88;;;;;;;27.09;100.00;98647.06;5092449;28;20128;-51
2022/07/03 07:06:56;;;;;;;7.75;7.15;;;;;;;27.52;100.00;98669.88;5092272;28;20055;-53
2022/07/03 07:09:22;;;;;;;9.05;7.00;;;;;;;28.20;100.00;98560.75;5092451;28;20048;-50
2022/07/03 07:11:49;;;;;;;10.25;7.57;;;;;;;28.23;100.00;98549.25;5092669;28;20135;-53
2022/07/03 07:14:15;;;;;;;8.50;7.47;;;;;;;28.64;100.00;98452.41;5092384;28;20052;-54
2022/07/03 07:16:42;;;;;;;13.15;7.35;;;;;;;28.64;100.00;98390.34;5092416;28;20052;-53
2022/07/03 07:19:08;;;;;;;7.65;7.05;;;;;;;28.74;100.00;98423.47;5092093;28;20051;-51
2022/07/03 07:21:34;;;;;;;10.95;7.28;;;;;;;29.21;100.00;98366.66;5092477;28;20114;-51
2022/07/03 07:24:00;;;;;;;8.50;7.63;;;;;;;29.93;100.00;98348.91;5092038;28;20423;-51
2022/07/03 07:26:27;;;;;;;7.60;6.50;;;;;;;30.16;100.00;98338.31;5092372;28;20054;-53
2022/07/03 07:28:53;;;;;;;10.60;7.40;;;;;;;29.59;100.00;98341.75;5092669;28;20099;-52
2022/07/03 07:31:20;;;;;;;9.90;7.82;;;;;;;29.39;100.00;98342.78;5092360;28;20590;-51
2022/07/03 07:33:46;;;;;;;11.23;7.70;;;;;;;28.33;100.00;98381.50;5090699;28;20905;-51
2022/07/03 07:36:12;;;;;;;8.13;7.10;;;;;;;28.20;100.00;98402.94;5092234;28;20422;-51
2022/07/03 07:38:38;;;;;;;10.13;7.05;;;;;;;28.98;100.00;98375.06;5091921;28;20044;-53
2022/07/03 07:41:05;;;;;;;10.32;6.38;;;;;;;29.36;100.00;98347.41;5091707;28;20064;-54
2022/07/03 07:43:31;;;;;;;7.68;6.90;;;;;;;29.82;100.00;98331.97;5091965;28;20475;-54
2022/07/03 07:45:57;;;;;;;7.80;6.75;;;;;;;30.60;100.00;98318.88;5091632;28;20048;-52
2022/07/03 07:48:24;;;;;;;11.82;7.18;;;;;;;30.75;100.00;98310.78;5092067;28;20478;-55
2022/07/03 07:50:51;;;;;;;7.53;6.75;;;;;;;31.58;100.00;98336.94;5091615;28;20550;-54
2022/07/03 07:53:17;;;;;;;11.00;7.07;;;;;;;31.88;100.00;98356.78;5091824;28;20048;-53
2022/07/03 07:55:44;;;;;;;8.65;6.78;;;;;;;31.78;100.00;98371.81;5091664;28;20071;-54
2022/07/03 07:58:10;;;;;;;11.55;7.30;;;;;;;31.60;100.00;98367.59;5091760;28;20048;-53
2022/07/03 08:00:36;;;;;;;8.38;6.72;;;;;;;31.80;100.00;98369.22;5091457;28;20055;-54
2022/07/03 08:05:48;;;;;;;8.18;6.45;;;;;;;32.21;100.00;98373.97;5091510;28;20050;-53
2022/07/03 08:08:15;;;;;;;7.80;7.03;;;;;;;32.65;100.00;98384.00;5091645;28;20056;-54
2022/07/03 08:10:43;;;;;;;8.50;7.20;;;;;;;31.74;100.00;98351.50;5091379;28;20052;-52
2022/07/03 08:13:11;;;;;;;10.25;6.90;;;;;;;31.57;100.00;98331.81;5091399;28;20138;-54
2022/07/03 08:15:38;;;;;;;10.20;6.93;;;;;;;32.06;100.00;98377.22;5091630;28;20056;-54
2022/07/03 08:18:05;;;;;;;8.70;6.95;;;;;;;32.29;100.00;98389.06;5091321;28;20138;-57
2022/07/03 08:20:32;;;;;;;7.47;6.53;;;;;;;31.97;100.00;98411.59;5091295;28;20059;-54
2022/07/03 08:22:59;;;;;;;9.75;7.00;;;;;;;32.02;100.00;98394.53;5091093;28;20567;-55
2022/07/03 08:25:26;;;;;;;11.85;7.63;;;;;;;31.17;100.00;98348.34;5091182;28;20520;-52
2022/07/03 08:27:52;;;;;;;8.18;7.38;;;;;;;31.68;100.00;98365.72;5091220;28;20105;-51
2022/07/03 08:30:19;;;;;;;9.02;7.20;;;;;;;32.35;100.00;98390.53;5091065;28;20141;-53
2022/07/03 08:32:46;;;;;;;9.40;7.32;;;;;;;32.91;100.00;98430.91;5091207;28;20052;-54
2022/07/03 08:35:13;;;;;;;7.47;6.75;;;;;;;33.11;100.00;98410.50;5091181;28;20055;-55
2022/07/03 08:37:40;;;;;;;8.63;6.32;;;;;;;33.38;100.00;98433.34;5091238;28;20080;-54
2022/07/03 08:40:10;;;;;;;7.88;6.80;;;;;;;33.43;100.00;98483.66;5091036;28;20052;-54
2022/07/03 08:42:38;;;;;;;9.70;7.25;;;;;;;32.85;100.00;98450.06;5091233;28;20055;-55
2022/07/03 08:45:07;;;;;;;11.77;7.32;;;;;;;32.05;100.00;98401.19;5090323;28;20056;-55
2022/07/03 08:47:35;;;;;;;9.63;7.13;;;;;;;31.41;100.00;98368.25;5090962;28;20060;-54
2022/07/03 08:50:02;;;;;;;7.50;6.75;;;;;;;31.50;100.00;98355.84;5090671;28;20052;-54
2022/07/03 08:52:29;;;;;;;10.63;7.55;;;;;;;31.99;100.00;98369.28;5090662;28;20048;-51
2022/07/03 08:54:55;;;;;;;8.77;6.90;;;;;;;32.73;100.00;98399.13;5090776;28;20055;-54
2022/07/03 08:57:24;;;;;;;8.02;7.22;;;;;;;33.31;100.00;98451.78;5090602;28;20056;-55
2022/07/03 08:59:53;;;;;;;9.35;6.50;;;;;;;33.53;100.00;98464.94;5090638;28;20154;-54
2022/07/03 09:02:22;;;;;;;11.40;6.85;;;;;;;33.93;100.00;98456.53;5090878;28;20145;-53
2022/07/03 09:04:49;;;;;;;7.32;6.63;;;;;;;33.87;100.00;98507.03;5091007;28;20058;-55
2022/07/03 09:07:18;;;;;;;10.52;6.72;;;;;;;34.57;100.00;98524.72;5090472;28;20048;-54
2022/07/03 09:09:45;;;;;;;7.85;7.10;;;;;;;34.03;100.00;98533.69;5090775;28;20052;-53
2022/07/03 09:12:11;;;;;;;7.80;7.05;;;;;;;34.43;100.00;98497.53;5090504;28;20052;-54
2022/07/03 09:14:38;;;;;;;9.15;6.25;;;;;;;34.71;100.00;98516.94;5090560;28;20052;-55
2022/07/03 09:17:06;;;;;;;9.10;7.75;;;;;;;34.25;100.00;98535.38;5090281;28;20100;-54
2022/07/03 09:19:43;;;;;;;7.90;7.20;;;;;;;33.64;100.00;98490.31;5090303;28;20063;-55
2022/07/03 09:22:22;;;;;;;12.40;6.78;;;;;;;33.61;100.00;98465.06;5090424;28;20043;-54
2022/07/03 09:24:50;;;;;;;7.97;7.13;;;;;;;34.08;100.00;98495.84;5090329;28;20083;-53
2022/07/03 09:27:19;;;;;;;6.95;6.28;;;;;;;34.60;100.00;98522.88;5090362;28;20109;-54
2022/07/03 09:29:59;;;;;;;8.25;6.70;;;;;;;35.19;100.00;98551.22;5090157;28;20143;-55
2022/07/03 09:32:26;;;;;;;9.65;7.00;;;;;;;35.34;100.00;98542.88;5090731;28;20063;-55
2022/07/03 09:35:11;;;;;;;7.00;6.25;;;;;;;35.47;100.00;98571.34;5090242;28;20087;-54
2022/07/03 09:37:38;;;;;;;7.78;6.80;;;;;;;35.30;100.00;98557.44;5090138;28;20075;-54
2022/07/03 09:40:05;;;;;;;8.68;7.10;;;;;;;35.12;100.00;98530.66;5090092;28;20051;-54
2022/07/03 09:42:31;;;;;;;9.40;7.03;;;;;;;33.78;100.00;98519.56;5090085;28;20412;-54
2022/07/03 09:44:58;;;;;;;7.97;7.25;;;;;;;33.19;100.00;98485.28;5090103;28;20059;-54
2022/07/03 09:47:25;;;;;;;9.13;7.15;;;;;;;33.03;100.00;98421.72;5089965;28;20515;-57
2022/07/03 09:49:54;;;;;;;8.15;7.30;;;;;;;33.45;100.00;98436.31;5090107;28;20052;-55
2022/07/03 09:52:34;;;;;;;9.18;7.78;;;;;;;33.56;100.00;98500.78;5089800;28;20101;-54
2022/07/03 09:55:11;;;;;;;7.75;6.95;;;;;;;33.32;100.00;98472.44;5089722;28;20048;-54
2022/07/03 09:57:39;;;;;;;9.23;7.03;;;;;;;33.71;100.00;98454.81;5089366;28;20062;-53
2022/07/03 10:00:20;;;;;;;10.52;7.15;;;;;;;33.90;100.00;98471.81;5090237;28;20056;-55
2022/07/03 10:02:58;;;;;;;12.13;7.50;;;;;;;33.73;100.00;98438.75;5090083;28;20094;-54
2022/07/03 10:05:27;;;;;;;9.43;7.47;;;;;;;33.13;100.00;98447.66;5089615;28;20511;-53
2022/07/03 10:07:56;;;;;;;10.00;7.32;;;;;;;33.01;100.00;98406.53;5089894;28;20396;-54
2022/07/03 10:10:24;;;;;;;8.20;7.50;;;;;;;33.37;100.00;98468.75;5089630;28;20412;-55
2022/07/03 10:12:52;;;;;;;8.05;7.35;;;;;;;33.67;100.00;98509.13;5089818;28;20098;-53
2022/07/03 10:15:20;;;;;;;7.68;6.80;;;;;;;33.91;100.00;98524.53;5089569;28;20134;-51
2022/07/03 10:17:49;;;;;;;8.70;7.20;;;;;;;34.43;100.00;98580.81;5089812;28;20458;-54
2022/07/03 10:20:19;;;;;;;9.38;7.28;;;;;;;34.26;100.00;98630.78;5089448;28;20446;-51
2022/07/03 10:22:48;;;;;;;7.57;6.97;;;;;;;34.17;100.00;98584.34;5089466;28;20062;-55
2022/07/03 10:25:15;;;;;;;7.88;6.78;;;;;;;33.94;100.00;98628.66;5089361;28;20058;-54
2022/07/03 10:27:42;;;;;;;8.48;6.55;;;;;;;33.86;100.00;98574.50;5089295;28;20048;-54
2022/07/03 10:30:09;;;;;;;9.00;6.90;;;;;;;33.53;100.00;98533.13;5089500;28;20047;-54
2022/07/03 10:32:38;;;;;;;7.82;6.90;;;;;;;33.43;100.00;98549.00;5089327;28;20087;-54
2022/07/03 10:35:05;;;;;;;7.60;6.95;;;;;;;33.40;100.00;98548.00;5089879;28;20090;-54
2022/07/03 10:37:43;;;;;;;7.00;6.40;;;;;;;32.47;100.00;98503.91;5089652;28;20058;-54
2022/07/03 10:46:10;;;;;;;6.45;5.93;;;;;;;33.38;100.00;98586.75;5089194;28;20419;-53
2022/07/03 10:48:52;;;;;;;6.95;5.95;;;;;;;33.18;100.00;98633.47;5089336;28;20048;-53
2022/07/03 10:51:19;;;;;;;5.75;5.20;;;;;;;33.05;100.00;98656.84;5089161;28;20109;-51
2022/07/03 10:53:45;;;;;;;6.72;5.60;;;;;;;33.56;100.00;98687.56;5089110;28;20059;-54
2022/07/03 10:56:11;;;;;;;6.80;5.90;;;;;;;33.94;100.00;98657.84;5089066;28;20087;-50
2022/07/03 10:58:55;;;;;;;8.40;6.07;;;;;;;34.12;100.00;98652.69;5089223;28;20055;-50
2022/07/03 11:01:27;;;;;;;5.93;5.15;;;;;;;34.24;100.00;98681.75;5089188;28;20514;-52
2022/07/03 11:03:57;;;;;;;5.55;5.00;;;;;;;34.01;100.00;98687.00;5089100;28;20055;-50
2022/07/03 11:07:00;;;;;;;5.97;4.80;;;;;;;33.87;100.00;98692.59;5089436;28;20070;-51
2022/07/03 11:09:27;;;;;;;4.93;4.30;;;;;;;34.17;100.00;98732.28;5092427;28;20101;-52
2022/07/03 11:11:56;;;;;;;4.70;4.20;;;;;;;34.11;100.00;98754.34;5092349;28;20278;-55
2022/07/03 11:14:24;;;;;;;5.93;4.18;;;;;;;33.73;100.00;98697.41;5092294;28;20086;-53
2022/07/03 11:17:10;;;;;;;5.75;5.25;;;;;;;33.15;100.00;98714.81;5092066;28;20106;-54
2022/07/03 11:19:37;;;;;;;10.15;5.25;;;;;;;33.07;100.00;98640.06;5092034;28;20142;-53
2022/07/03 11:22:11;;;;;;;6.10;5.18;;;;;;;33.19;100.00;98720.22;5092146;28;20044;-52
2022/07/03 11:24:44;;;;;;;5.28;4.78;;;;;;;32.98;100.00;98745.47;5092537;28;20085;-53
2022/07/03 11:27:34;;;;;;;4.18;3.75;;;;;;;32.91;100.00;98799.94;5092065;28;20093;-53
2022/07/03 11:30:01;;;;;;;4.78;3.85;;;;;;;33.47;100.00;98779.59;5091993;28;20052;-52
2022/07/03 11:32:51;;;;;;;4.63;4.07;;;;;;;33.38;100.00;98777.88;5092096;28;20142;-53
2022/07/03 11:35:47;;;;;;;4.97;4.10;;;;;;;33.16;100.00;98707.09;5092225;28;20056;-53
2022/07/03 11:38:15;;;;;;;5.95;4.03;;;;;;;33.08;100.00;98712.56;5092091;28;20091;-54
2022/07/03 11:40:43;;;;;;;4.50;4.07;;;;;;;32.51;100.00;98683.88;5091903;28;20056;-53